Buoy 41730

sailwx.info

Track history (hours):
 
Tides and Currents Weather Stations Pressure Air Temp Water Temp Dewpoint Dewpoint Depression Visibility Wind Speed Wind Dir Waves Ship Positions

Drifting buoy 41730

Last reported at 2018-Jul-22 07:00 UTC. Time now 2018-Jul-22 08:26 UTC.
Position N 37°47' W 034°00'.

Barometer 1031.9 mb

Date/timePositionNaut miles runAvg speedWind from/ knotsBaromVisibWave heightAir tempDewpointWater temp
2018-Jul-22 07:00N 37°47' W 034°00'0 0.5 1031.9
2018-Jul-22 06:00N 37°47' W 033°59'0 0.5 1031.7
2018-Jul-22 05:00N 37°47' W 034°00'0 0.0 1032.0
2018-Jul-22 04:00N 37°47' W 034°00'0 0.0 1032.5
2018-Jul-22 03:00N 37°47' W 034°00'0 0.0 1032.9
2018-Jul-22 02:00N 37°47' W 034°00'0 0.5 1033.3
2018-Jul-22 01:00N 37°47' W 034°01'0 0.0 1033.7
2018-Jul-22 00:00N 37°47' W 034°01'1 0.6 1033.8
2018-Jul-21 23:00N 37°47' W 034°01'1 0.8 1033.8
2018-Jul-21 22:00N 37°46' W 034°01'0 0.0 1033.6
2018-Jul-21 21:00N 37°46' W 034°01'0 0.5 1033.5
2018-Jul-21 20:00N 37°46' W 034°01'1 0.6 1033.4
2018-Jul-21 19:00N 37°46' W 034°01'0 0.0 1033.5
2018-Jul-21 18:00N 37°46' W 034°01'0 0.0 1033.6
2018-Jul-21 16:00N 37°46' W 034°01'0 0.0 1033.9
2018-Jul-21 15:00N 37°46' W 034°01'0 0.0 1034.1
2018-Jul-21 14:00N 37°46' W 034°01'1 0.8 1034.5
2018-Jul-21 13:00N 37°45' W 034°01'0 0.5 1034.5
2018-Jul-21 12:00N 37°45' W 034°02'1 0.8 1034.6
2018-Jul-21 11:00N 37°44' W 034°02'1 0.6 1034.4
2018-Jul-21 10:00N 37°44' W 034°02'1 0.6 1034.2
2018-Jul-21 09:00N 37°43' W 034°02'1 0.6 1033.8
2018-Jul-21 08:00N 37°43' W 034°02'1 0.8 1033.5
2018-Jul-21 07:00N 37°42' W 034°02'0 0.0 1033.1
2018-Jul-21 06:00N 37°42' W 034°02'1 0.8 1032.9
2018-Jul-21 05:00N 37°41' W 034°01'0 0.0 1032.8
2018-Jul-21 04:00N 37°41' W 034°01'0 0.0 1033.1
2018-Jul-21 03:00N 37°41' W 034°01'1 0.6 1033.1
2018-Jul-21 02:00N 37°41' W 034°01'0 0.5 1033.5
2018-Jul-21 01:00N 37°41' W 034°02'0 0.0 1033.9
2018-Jul-21 00:00N 37°41' W 034°02'0 0.0 1034.0
2018-Jul-20 23:00N 37°41' W 034°02'0 0.0 1033.8
2018-Jul-20 22:00N 37°41' W 034°02'1 0.6 1033.3
2018-Jul-20 21:00N 37°40' W 034°02'1 0.6 1033.0
2018-Jul-20 20:00N 37°40' W 034°02'0 0.0 1032.8
2018-Jul-20 19:00N 37°40' W 034°02'1 0.8 1032.8
2018-Jul-20 18:00N 37°39' W 034°01'1 0.6 1032.9
2018-Jul-20 17:00N 37°38' W 034°01'1 0.4 1032.8
2018-Jul-20 14:00N 37°38' W 034°00'0 0.0 1033.0
2018-Jul-20 13:00N 37°38' W 034°00'0 0.0 1032.9
2018-Jul-20 12:00N 37°38' W 034°00'0 0.0 1032.9
2018-Jul-20 11:00N 37°38' W 034°00'0 0.0 1032.8
2018-Jul-20 10:00N 37°38' W 034°00'0 0.0 1032.5
2018-Jul-20 09:00N 37°38' W 034°00'1 0.6 1032.3
2018-Jul-20 08:00N 37°37' W 034°00'1 0.8 1031.8
2018-Jul-20 07:00N 37°37' W 033°59'0 0.0 1031.4
2018-Jul-20 06:00N 37°37' W 033°59'1 0.8 1031.3
2018-Jul-20 05:00N 37°36' W 033°59'0 0.5 1031.2
2018-Jul-20 04:00N 37°36' W 033°58'0 0.5 1031.4
2018-Jul-20 03:00N 37°36' W 033°58'0 0.0 1031.4
2018-Jul-20 02:00N 37°36' W 033°58'0 0.0 1031.9
2018-Jul-20 01:00N 37°36' W 033°58'0 0.0 1032.0
2018-Jul-20 00:00N 37°36' W 033°58'1 0.6 1032.0
2018-Jul-19 23:00N 37°37' W 033°58'0 0.0 1031.8
2018-Jul-19 22:00N 37°37' W 033°58'0 0.0 1031.2
2018-Jul-19 21:00N 37°37' W 033°58'1 0.8 1030.9
2018-Jul-19 20:00N 37°37' W 033°58'1 0.6 1030.8
2018-Jul-19 19:00N 37°37' W 033°58'1 0.6 1030.6
2018-Jul-19 18:00N 37°36' W 033°58'1 0.8 1030.7
2018-Jul-19 17:00N 37°35' W 033°58'1 0.8 1030.9
2018-Jul-19 16:00N 37°35' W 033°57'0 0.5 1030.8
2018-Jul-19 15:00N 37°35' W 033°56'0 0.5 1030.7
2018-Jul-19 14:00N 37°35' W 033°56'1 1.0 1030.9
2018-Jul-19 13:00N 37°35' W 033°55'1 0.4 1031.0
2018-Jul-19 11:00N 37°35' W 033°54'0 0.5 1030.7
2018-Jul-19 10:00N 37°35' W 033°53'1 0.6 1030.7
2018-Jul-19 09:00N 37°36' W 033°53'0 0.0 1030.3
2018-Jul-19 08:00N 37°36' W 033°53'0 0.5 1029.9
2018-Jul-19 07:00N 37°36' W 033°53'1 0.6 1029.6
2018-Jul-19 06:00N 37°37' W 033°53'0 0.5 1029.6
2018-Jul-19 05:00N 37°37' W 033°52'1 0.6 1029.8
2018-Jul-19 04:00N 37°36' W 033°52'0 0.5 1029.8
2018-Jul-19 03:00N 37°36' W 033°52'0 0.0 1030.0
2018-Jul-19 02:00N 37°36' W 033°52'1 0.8 1030.4
2018-Jul-19 01:00N 37°37' W 033°51'0 0.0 1030.5
2018-Jul-19 00:00N 37°37' W 033°51'1 0.6 1030.4
2018-Jul-18 23:00N 37°37' W 033°51'0 0.0 1030.4
2018-Jul-18 22:00N 37°37' W 033°51'0 0.0 1030.0
2018-Jul-18 21:00N 37°37' W 033°51'0 0.5 1029.8
2018-Jul-18 20:00N 37°37' W 033°52'0 0.0 1029.9
2018-Jul-18 19:00N 37°37' W 033°52'0 0.0 1029.8
2018-Jul-18 18:00N 37°37' W 033°52'1 0.6 1029.7
2018-Jul-18 17:00N 37°37' W 033°52'1 0.6 1029.7
2018-Jul-18 16:00N 37°36' W 033°52'2 1.5 1029.9
2018-Jul-18 15:00N 37°35' W 033°50'1 1.0 1029.9
2018-Jul-18 14:00N 37°35' W 033°49'0 0.5 1030.1
2018-Jul-18 13:00N 37°35' W 033°48'1 0.8 1030.4
2018-Jul-18 12:00N 37°36' W 033°47'1 0.6 1030.4
2018-Jul-18 11:00N 37°37' W 033°47'1 0.6 1030.2
2018-Jul-18 10:00N 37°37' W 033°47'1 0.8 1030.2
2018-Jul-18 09:00N 37°38' W 033°48'0 0.0 1030.1
2018-Jul-18 08:00N 37°38' W 033°48'1 0.8 1029.8
2018-Jul-18 07:00N 37°38' W 033°49'0 0.5 1029.5
2018-Jul-18 06:00N 37°38' W 033°49'0 0.5 1029.5
2018-Jul-18 05:00N 37°38' W 033°50'1 0.8 1029.9
2018-Jul-18 04:00N 37°38' W 033°50'1 0.8 1030.3
2018-Jul-18 03:00N 37°37' W 033°50'1 1.3 1030.4
2018-Jul-18 02:00N 37°36' W 033°49'0 0.5 1030.7
2018-Jul-18 01:00N 37°36' W 033°49'0 0.5 1031.1
2018-Jul-18 00:00N 37°36' W 033°48'1 0.8 1031.3
2018-Jul-17 23:00N 37°37' W 033°47'0 0.0 1031.3
2018-Jul-17 22:00N 37°37' W 033°47'1 0.6 1030.6
2018-Jul-17 21:00N 37°37' W 033°47'1 0.8 1030.4
2018-Jul-17 20:00N 37°37' W 033°47'0 0.5 1030.2
2018-Jul-17 19:00N 37°37' W 033°46'0 0.0 1030.1
2018-Jul-17 18:00N 37°37' W 033°46'0 0.5 1030.5
2018-Jul-17 17:00N 37°37' W 033°46'0 0.0 1030.8
2018-Jul-17 16:00N 37°37' W 033°46'0 0.5 1031.0
2018-Jul-17 15:00N 37°37' W 033°45'1 0.8 1031.1
2018-Jul-17 14:00N 37°36' W 033°44'0 0.5 1031.4
2018-Jul-17 13:00N 37°36' W 033°44'1 0.8 1031.5
2018-Jul-17 12:00N 37°37' W 033°43'1 0.8 1031.5
2018-Jul-17 11:00N 37°37' W 033°43'1 0.6 1031.3
2018-Jul-17 10:00N 37°38' W 033°43'1 0.3 1031.6
2018-Jul-17 08:00N 37°38' W 033°43'0 0.5 1031.1
2018-Jul-17 07:00N 37°38' W 033°43'0 0.0 1031.1
2018-Jul-17 06:00N 37°38' W 033°43'0 0.5 1031.0
2018-Jul-17 05:00N 37°38' W 033°44'0 0.0 1031.4
2018-Jul-17 04:00N 37°38' W 033°44'1 0.8 1031.8
2018-Jul-17 03:00N 37°38' W 033°44'0 0.2 1032.2
2018-Jul-17 01:00N 37°38' W 033°44'0 0.0 1032.9 16.0
2018-Jul-17 00:00N 37°38' W 033°44'0 0.0 1033.1
2018-Jul-16 23:00N 37°38' W 033°44'0 0.2 1033.0
2018-Jul-16 20:00N 37°38' W 033°43'0 0.0 1032.1
2018-Jul-16 19:00N 37°38' W 033°43'1 0.6 1031.9
2018-Jul-16 18:00N 37°37' W 033°43'0 0.0 1032.0
2018-Jul-16 17:00N 37°37' W 033°43'0 0.0 1031.9
2018-Jul-16 16:00N 37°37' W 033°43'0 0.5 1032.1
2018-Jul-16 15:00N 37°37' W 033°43'1 0.6 1032.3
2018-Jul-16 14:00N 37°37' W 033°43'0 0.5 1032.4
2018-Jul-16 13:00N 37°37' W 033°42'0 0.5 1032.6
2018-Jul-16 12:00N 37°37' W 033°41'0 0.0 1032.6
2018-Jul-16 11:00N 37°37' W 033°41'1 0.8 1032.4
2018-Jul-16 10:00N 37°37' W 033°41'0 0.0 1032.3
2018-Jul-16 09:00N 37°37' W 033°41'1 0.6 1031.9
2018-Jul-16 08:00N 37°38' W 033°41'0 0.0 1031.6
2018-Jul-16 07:00N 37°38' W 033°41'0 0.5 1031.2
2018-Jul-16 06:00N 37°38' W 033°41'0 0.5 1030.9
2018-Jul-16 05:00N 37°38' W 033°42'0 0.0 1031.0
2018-Jul-16 04:00N 37°38' W 033°42'1 0.8 1031.1
2018-Jul-16 03:00N 37°37' W 033°43'0 0.0 1031.1
2018-Jul-16 02:00N 37°37' W 033°43'1 0.6 1031.3
2018-Jul-16 01:00N 37°37' W 033°43'1 0.6 1031.6
2018-Jul-16 00:00N 37°36' W 033°43'0 0.0 1031.5
2018-Jul-15 23:00N 37°36' W 033°43'0 0.5 1031.2
2018-Jul-15 22:00N 37°36' W 033°42'0 0.0 1030.7
2018-Jul-15 21:00N 37°36' W 033°42'0 0.5 1030.5
2018-Jul-15 20:00N 37°36' W 033°41'0 0.5 1029.9
2018-Jul-15 19:00N 37°36' W 033°41'0 0.0 1029.6
2018-Jul-15 18:00N 37°36' W 033°41'0 0.5 1029.5
2018-Jul-15 17:00N 37°36' W 033°40'1 0.8 1029.5
2018-Jul-15 16:00N 37°37' W 033°41'0 0.0 1029.5
2018-Jul-15 15:00N 37°37' W 033°41'0 0.0 1029.4
2018-Jul-15 14:00N 37°37' W 033°41'0 0.5 1029.6
2018-Jul-15 13:00N 37°37' W 033°41'0 0.0 1029.9
2018-Jul-15 12:00N 37°37' W 033°41'0 0.0 1029.8
2018-Jul-15 11:00N 37°37' W 033°41'1 0.6 1029.6
2018-Jul-15 10:00N 37°37' W 033°41'0 0.0 1029.8
2018-Jul-15 09:00N 37°37' W 033°41'0 0.0 1029.5
2018-Jul-15 08:00N 37°37' W 033°41'0 0.0 1029.1
2018-Jul-15 07:00N 37°37' W 033°41'0 0.5 1029.0
2018-Jul-15 06:00N 37°37' W 033°42'0 0.0 1028.9
2018-Jul-15 05:00N 37°37' W 033°42'0 0.5 1029.0
2018-Jul-15 04:00N 37°37' W 033°43'0 0.5 1029.3
2018-Jul-15 03:00N 37°37' W 033°43'0 0.0 1029.5
2018-Jul-15 02:00N 37°37' W 033°43'1 0.8 1030.1
2018-Jul-15 01:00N 37°37' W 033°44'1 0.8 1030.4
2018-Jul-15 00:00N 37°36' W 033°44'0 0.0 1030.7
2018-Jul-14 23:00N 37°36' W 033°44'0 0.0 1030.7
2018-Jul-14 22:00N 37°36' W 033°44'0 0.5 1030.6
2018-Jul-14 21:00N 37°36' W 033°44'0 0.0 1030.4
2018-Jul-14 20:00N 37°36' W 033°44'0 0.0 1030.2
2018-Jul-14 19:00N 37°36' W 033°44'0 0.0 1030.3
2018-Jul-14 18:00N 37°36' W 033°44'1 0.8 1030.5
2018-Jul-14 17:00N 37°37' W 033°44'0 0.5 1030.7
2018-Jul-14 16:00N 37°37' W 033°45'0 0.0 1030.8
2018-Jul-14 15:00N 37°37' W 033°45'1 0.8 1030.9
2018-Jul-14 14:00N 37°36' W 033°46'0 0.5 1031.3
2018-Jul-14 13:00N 37°36' W 033°46'1 1.3 1031.5
2018-Jul-14 12:00N 37°35' W 033°47'1 0.6 1031.5
2018-Jul-14 11:00N 37°34' W 033°47'1 0.8 1031.4
2018-Jul-14 10:00N 37°34' W 033°46'0 0.5 1031.6
2018-Jul-14 09:00N 37°34' W 033°46'0 0.0 1031.3
2018-Jul-14 08:00N 37°34' W 033°46'0 0.5 1031.1
2018-Jul-14 07:00N 37°34' W 033°45'1 0.8 1030.6
2018-Jul-14 06:00N 37°34' W 033°44'0 0.0 1030.4
2018-Jul-14 05:00N 37°34' W 033°44'1 0.6 1030.6
2018-Jul-14 04:00N 37°35' W 033°44'0 0.5 1031.1
2018-Jul-14 03:00N 37°35' W 033°45'0 0.5 1031.4
2018-Jul-14 02:00N 37°35' W 033°46'1 0.8 1031.6
2018-Jul-14 01:00N 37°34' W 033°46'1 0.6 1032.2
2018-Jul-13 23:00N 37°33' W 033°46'1 0.6 1032.3
2018-Jul-13 22:00N 37°32' W 033°46'1 0.8 1031.8
2018-Jul-13 21:00N 37°32' W 033°46'0 0.5 1031.7
2018-Jul-13 20:00N 37°32' W 033°45'0 0.5 1031.5
2018-Jul-13 19:00N 37°32' W 033°44'1 0.8 1031.8
2018-Jul-13 18:00N 37°32' W 033°44'0 0.0 1031.9
2018-Jul-13 17:00N 37°32' W 033°44'1 0.8 1032.2
2018-Jul-13 16:00N 37°33' W 033°43'0 0.5 1032.6
2018-Jul-13 15:00N 37°33' W 033°44'1 0.8 1032.9
2018-Jul-13 14:00N 37°34' W 033°44'1 0.8 1033.4
2018-Jul-13 13:00N 37°33' W 033°45'1 0.8 1033.5
2018-Jul-13 12:00N 37°32' W 033°46'1 0.8 1033.7
2018-Jul-13 11:00N 37°32' W 033°46'1 0.6 1033.6
2018-Jul-13 10:00N 37°31' W 033°46'1 1.3 1033.7
2018-Jul-13 09:00N 37°30' W 033°46'1 0.8 1033.6
2018-Jul-13 08:00N 37°29' W 033°45'1 1.0 1033.3
2018-Jul-13 07:00N 37°29' W 033°44'0 0.5 1033.4
2018-Jul-13 06:00N 37°29' W 033°43'1 1.1 1033.5
2018-Jul-13 05:00N 37°30' W 033°42'1 0.8 1033.9
2018-Jul-13 04:00N 37°31' W 033°41'1 0.6 1034.3
2018-Jul-13 03:00N 37°31' W 033°41'1 0.8 1034.4
2018-Jul-13 02:00N 37°32' W 033°42'0 0.0 1034.8
2018-Jul-13 01:00N 37°32' W 033°42'1 1.0 1035.4
2018-Jul-13 00:00N 37°32' W 033°43'0 0.5 1035.3
2018-Jul-12 23:00N 37°32' W 033°44'1 1.3 1035.2
2018-Jul-12 22:00N 37°31' W 033°44'1 0.6 1034.9
2018-Jul-12 21:00N 37°30' W 033°44'1 0.6 1034.9
2018-Jul-12 20:00N 37°29' W 033°44'1 1.3 1034.5
2018-Jul-12 19:00N 37°28' W 033°44'0 0.5 1034.6
2018-Jul-12 18:00N 37°28' W 033°43'1 1.0 1034.6
2018-Jul-12 17:00N 37°28' W 033°42'0 0.0 1035.0
2018-Jul-12 16:00N 37°28' W 033°42'1 1.0 1035.1
2018-Jul-12 15:00N 37°28' W 033°41'0 0.0 1035.4
2018-Jul-12 14:00N 37°28' W 033°41'0 0.5 1035.5
2018-Jul-12 13:00N 37°28' W 033°40'0 0.0 1035.5
2018-Jul-12 12:00N 37°28' W 033°40'0 0.0 1035.4
2018-Jul-12 11:00N 37°28' W 033°40'1 0.6 1035.2
2018-Jul-12 10:00N 37°28' W 033°40'1 0.8 1035.2
2018-Jul-12 09:00N 37°27' W 033°40'0 0.5 1034.8
2018-Jul-12 08:00N 37°27' W 033°39'0 0.5 1034.7
2018-Jul-12 07:00N 37°27' W 033°38'   1034.5
Track history (hours):
 
Tides and Currents Weather Stations Pressure Air Temp Water Temp Dewpoint Dewpoint Depression Visibility Wind Speed Wind Dir Waves Ship Positions

Drifting buoy 41730

Last reported at 2018-Jul-22 07:00 UTC. Time now 2018-Jul-22 08:26 UTC.
Position N 37°47' W 034°00'.

Barometer 1031.9 mb

Date/timePositionNaut miles runAvg speedWind from/ knotsBaromVisibWave heightAir tempDewpointWater temp
2018-Jul-22 07:00N 37°47' W 034°00'0 0.5 1031.9
2018-Jul-22 06:00N 37°47' W 033°59'0 0.5 1031.7
2018-Jul-22 05:00N 37°47' W 034°00'0 0.0 1032.0
2018-Jul-22 04:00N 37°47' W 034°00'0 0.0 1032.5
2018-Jul-22 03:00N 37°47' W 034°00'0 0.0 1032.9
2018-Jul-22 02:00N 37°47' W 034°00'0 0.5 1033.3
2018-Jul-22 01:00N 37°47' W 034°01'0 0.0 1033.7
2018-Jul-22 00:00N 37°47' W 034°01'1 0.6 1033.8
2018-Jul-21 23:00N 37°47' W 034°01'1 0.8 1033.8
2018-Jul-21 22:00N 37°46' W 034°01'0 0.0 1033.6
2018-Jul-21 21:00N 37°46' W 034°01'0 0.5 1033.5
2018-Jul-21 20:00N 37°46' W 034°01'1 0.6 1033.4
2018-Jul-21 19:00N 37°46' W 034°01'0 0.0 1033.5
2018-Jul-21 18:00N 37°46' W 034°01'0 0.0 1033.6
2018-Jul-21 16:00N 37°46' W 034°01'0 0.0 1033.9
2018-Jul-21 15:00N 37°46' W 034°01'0 0.0 1034.1
2018-Jul-21 14:00N 37°46' W 034°01'1 0.8 1034.5
2018-Jul-21 13:00N 37°45' W 034°01'0 0.5 1034.5
2018-Jul-21 12:00N 37°45' W 034°02'1 0.8 1034.6
2018-Jul-21 11:00N 37°44' W 034°02'1 0.6 1034.4
2018-Jul-21 10:00N 37°44' W 034°02'1 0.6 1034.2
2018-Jul-21 09:00N 37°43' W 034°02'1 0.6 1033.8
2018-Jul-21 08:00N 37°43' W 034°02'1 0.8 1033.5
2018-Jul-21 07:00N 37°42' W 034°02'0 0.0 1033.1
2018-Jul-21 06:00N 37°42' W 034°02'1 0.8 1032.9
2018-Jul-21 05:00N 37°41' W 034°01'0 0.0 1032.8
2018-Jul-21 04:00N 37°41' W 034°01'0 0.0 1033.1
2018-Jul-21 03:00N 37°41' W 034°01'1 0.6 1033.1
2018-Jul-21 02:00N 37°41' W 034°01'0 0.5 1033.5
2018-Jul-21 01:00N 37°41' W 034°02'0 0.0 1033.9
2018-Jul-21 00:00N 37°41' W 034°02'0 0.0 1034.0
2018-Jul-20 23:00N 37°41' W 034°02'0 0.0 1033.8
2018-Jul-20 22:00N 37°41' W 034°02'1 0.6 1033.3
2018-Jul-20 21:00N 37°40' W 034°02'1 0.6 1033.0
2018-Jul-20 20:00N 37°40' W 034°02'0 0.0 1032.8
2018-Jul-20 19:00N 37°40' W 034°02'1 0.8 1032.8
2018-Jul-20 18:00N 37°39' W 034°01'1 0.6 1032.9
2018-Jul-20 17:00N 37°38' W 034°01'1 0.4 1032.8
2018-Jul-20 14:00N 37°38' W 034°00'0 0.0 1033.0
2018-Jul-20 13:00N 37°38' W 034°00'0 0.0 1032.9
2018-Jul-20 12:00N 37°38' W 034°00'0 0.0 1032.9
2018-Jul-20 11:00N 37°38' W 034°00'0 0.0 1032.8
2018-Jul-20 10:00N 37°38' W 034°00'0 0.0 1032.5
2018-Jul-20 09:00N 37°38' W 034°00'1 0.6 1032.3
2018-Jul-20 08:00N 37°37' W 034°00'1 0.8 1031.8
2018-Jul-20 07:00N 37°37' W 033°59'0 0.0 1031.4
2018-Jul-20 06:00N 37°37' W 033°59'1 0.8 1031.3
2018-Jul-20 05:00N 37°36' W 033°59'0 0.5 1031.2
2018-Jul-20 04:00N 37°36' W 033°58'0 0.5 1031.4
2018-Jul-20 03:00N 37°36' W 033°58'0 0.0 1031.4
2018-Jul-20 02:00N 37°36' W 033°58'0 0.0 1031.9
2018-Jul-20 01:00N 37°36' W 033°58'0 0.0 1032.0
2018-Jul-20 00:00N 37°36' W 033°58'1 0.6 1032.0
2018-Jul-19 23:00N 37°37' W 033°58'0 0.0 1031.8
2018-Jul-19 22:00N 37°37' W 033°58'0 0.0 1031.2
2018-Jul-19 21:00N 37°37' W 033°58'1 0.8 1030.9
2018-Jul-19 20:00N 37°37' W 033°58'1 0.6 1030.8
2018-Jul-19 19:00N 37°37' W 033°58'1 0.6 1030.6
2018-Jul-19 18:00N 37°36' W 033°58'1 0.8 1030.7
2018-Jul-19 17:00N 37°35' W 033°58'1 0.8 1030.9
2018-Jul-19 16:00N 37°35' W 033°57'0 0.5 1030.8
2018-Jul-19 15:00N 37°35' W 033°56'0 0.5 1030.7
2018-Jul-19 14:00N 37°35' W 033°56'1 1.0 1030.9
2018-Jul-19 13:00N 37°35' W 033°55'1 0.4 1031.0
2018-Jul-19 11:00N 37°35' W 033°54'0 0.5 1030.7
2018-Jul-19 10:00N 37°35' W 033°53'1 0.6 1030.7
2018-Jul-19 09:00N 37°36' W 033°53'0 0.0 1030.3
2018-Jul-19 08:00N 37°36' W 033°53'0 0.5 1029.9
2018-Jul-19 07:00N 37°36' W 033°53'1 0.6 1029.6
2018-Jul-19 06:00N 37°37' W 033°53'0 0.5 1029.6
2018-Jul-19 05:00N 37°37' W 033°52'1 0.6 1029.8
2018-Jul-19 04:00N 37°36' W 033°52'0 0.5 1029.8
2018-Jul-19 03:00N 37°36' W 033°52'0 0.0 1030.0
2018-Jul-19 02:00N 37°36' W 033°52'1 0.8 1030.4
2018-Jul-19 01:00N 37°37' W 033°51'0 0.0 1030.5
2018-Jul-19 00:00N 37°37' W 033°51'1 0.6 1030.4
2018-Jul-18 23:00N 37°37' W 033°51'0 0.0 1030.4
2018-Jul-18 22:00N 37°37' W 033°51'0 0.0 1030.0
2018-Jul-18 21:00N 37°37' W 033°51'0 0.5 1029.8
2018-Jul-18 20:00N 37°37' W 033°52'0 0.0 1029.9
2018-Jul-18 19:00N 37°37' W 033°52'0 0.0 1029.8
2018-Jul-18 18:00N 37°37' W 033°52'1 0.6 1029.7
2018-Jul-18 17:00N 37°37' W 033°52'1 0.6 1029.7
2018-Jul-18 16:00N 37°36' W 033°52'2 1.5 1029.9
2018-Jul-18 15:00N 37°35' W 033°50'1 1.0 1029.9
2018-Jul-18 14:00N 37°35' W 033°49'0 0.5 1030.1
2018-Jul-18 13:00N 37°35' W 033°48'1 0.8 1030.4
2018-Jul-18 12:00N 37°36' W 033°47'1 0.6 1030.4
2018-Jul-18 11:00N 37°37' W 033°47'1 0.6 1030.2
2018-Jul-18 10:00N 37°37' W 033°47'1 0.8 1030.2
2018-Jul-18 09:00N 37°38' W 033°48'0 0.0 1030.1
2018-Jul-18 08:00N 37°38' W 033°48'1 0.8 1029.8
2018-Jul-18 07:00N 37°38' W 033°49'0 0.5 1029.5
2018-Jul-18 06:00N 37°38' W 033°49'0 0.5 1029.5
2018-Jul-18 05:00N 37°38' W 033°50'1 0.8 1029.9
2018-Jul-18 04:00N 37°38' W 033°50'1 0.8 1030.3
2018-Jul-18 03:00N 37°37' W 033°50'1 1.3 1030.4
2018-Jul-18 02:00N 37°36' W 033°49'0 0.5 1030.7
2018-Jul-18 01:00N 37°36' W 033°49'0 0.5 1031.1
2018-Jul-18 00:00N 37°36' W 033°48'1 0.8 1031.3
2018-Jul-17 23:00N 37°37' W 033°47'0 0.0 1031.3
2018-Jul-17 22:00N 37°37' W 033°47'1 0.6 1030.6
2018-Jul-17 21:00N 37°37' W 033°47'1 0.8 1030.4
2018-Jul-17 20:00N 37°37' W 033°47'0 0.5 1030.2
2018-Jul-17 19:00N 37°37' W 033°46'0 0.0 1030.1
2018-Jul-17 18:00N 37°37' W 033°46'0 0.5 1030.5
2018-Jul-17 17:00N 37°37' W 033°46'0 0.0 1030.8
2018-Jul-17 16:00N 37°37' W 033°46'0 0.5 1031.0
2018-Jul-17 15:00N 37°37' W 033°45'1 0.8 1031.1
2018-Jul-17 14:00N 37°36' W 033°44'0 0.5 1031.4
2018-Jul-17 13:00N 37°36' W 033°44'1 0.8 1031.5
2018-Jul-17 12:00N 37°37' W 033°43'1 0.8 1031.5
2018-Jul-17 11:00N 37°37' W 033°43'1 0.6 1031.3
2018-Jul-17 10:00N 37°38' W 033°43'1 0.3 1031.6
2018-Jul-17 08:00N 37°38' W 033°43'0 0.5 1031.1
2018-Jul-17 07:00N 37°38' W 033°43'0 0.0 1031.1
2018-Jul-17 06:00N 37°38' W 033°43'0 0.5 1031.0
2018-Jul-17 05:00N 37°38' W 033°44'0 0.0 1031.4
2018-Jul-17 04:00N 37°38' W 033°44'1 0.8 1031.8
2018-Jul-17 03:00N 37°38' W 033°44'0 0.2 1032.2
2018-Jul-17 01:00N 37°38' W 033°44'0 0.0 1032.9 16.0
2018-Jul-17 00:00N 37°38' W 033°44'0 0.0 1033.1
2018-Jul-16 23:00N 37°38' W 033°44'0 0.2 1033.0
2018-Jul-16 20:00N 37°38' W 033°43'0 0.0 1032.1
2018-Jul-16 19:00N 37°38' W 033°43'1 0.6 1031.9
2018-Jul-16 18:00N 37°37' W 033°43'0 0.0 1032.0
2018-Jul-16 17:00N 37°37' W 033°43'0 0.0 1031.9
2018-Jul-16 16:00N 37°37' W 033°43'0 0.5 1032.1
2018-Jul-16 15:00N 37°37' W 033°43'1 0.6 1032.3
2018-Jul-16 14:00N 37°37' W 033°43'0 0.5 1032.4
2018-Jul-16 13:00N 37°37' W 033°42'0 0.5 1032.6
2018-Jul-16 12:00N 37°37' W 033°41'0 0.0 1032.6
2018-Jul-16 11:00N 37°37' W 033°41'1 0.8 1032.4
2018-Jul-16 10:00N 37°37' W 033°41'0 0.0 1032.3
2018-Jul-16 09:00N 37°37' W 033°41'1 0.6 1031.9
2018-Jul-16 08:00N 37°38' W 033°41'0 0.0 1031.6
2018-Jul-16 07:00N 37°38' W 033°41'0 0.5 1031.2
2018-Jul-16 06:00N 37°38' W 033°41'0 0.5 1030.9
2018-Jul-16 05:00N 37°38' W 033°42'0 0.0 1031.0
2018-Jul-16 04:00N 37°38' W 033°42'1 0.8 1031.1
2018-Jul-16 03:00N 37°37' W 033°43'0 0.0 1031.1
2018-Jul-16 02:00N 37°37' W 033°43'1 0.6 1031.3
2018-Jul-16 01:00N 37°37' W 033°43'1 0.6 1031.6
2018-Jul-16 00:00N 37°36' W 033°43'0 0.0 1031.5
2018-Jul-15 23:00N 37°36' W 033°43'0 0.5 1031.2
2018-Jul-15 22:00N 37°36' W 033°42'0 0.0 1030.7
2018-Jul-15 21:00N 37°36' W 033°42'0 0.5 1030.5
2018-Jul-15 20:00N 37°36' W 033°41'0 0.5 1029.9
2018-Jul-15 19:00N 37°36' W 033°41'0 0.0 1029.6
2018-Jul-15 18:00N 37°36' W 033°41'0 0.5 1029.5
2018-Jul-15 17:00N 37°36' W 033°40'1 0.8 1029.5
2018-Jul-15 16:00N 37°37' W 033°41'0 0.0 1029.5
2018-Jul-15 15:00N 37°37' W 033°41'0 0.0 1029.4
2018-Jul-15 14:00N 37°37' W 033°41'0 0.5 1029.6
2018-Jul-15 13:00N 37°37' W 033°41'0 0.0 1029.9
2018-Jul-15 12:00N 37°37' W 033°41'0 0.0 1029.8
2018-Jul-15 11:00N 37°37' W 033°41'1 0.6 1029.6
2018-Jul-15 10:00N 37°37' W 033°41'0 0.0 1029.8
2018-Jul-15 09:00N 37°37' W 033°41'0 0.0 1029.5
2018-Jul-15 08:00N 37°37' W 033°41'0 0.0 1029.1
2018-Jul-15 07:00N 37°37' W 033°41'0 0.5 1029.0
2018-Jul-15 06:00N 37°37' W 033°42'0 0.0 1028.9
2018-Jul-15 05:00N 37°37' W 033°42'0 0.5 1029.0
2018-Jul-15 04:00N 37°37' W 033°43'0 0.5 1029.3
2018-Jul-15 03:00N 37°37' W 033°43'0 0.0 1029.5
2018-Jul-15 02:00N 37°37' W 033°43'1 0.8 1030.1
2018-Jul-15 01:00N 37°37' W 033°44'1 0.8 1030.4
2018-Jul-15 00:00N 37°36' W 033°44'0 0.0 1030.7
2018-Jul-14 23:00N 37°36' W 033°44'0 0.0 1030.7
2018-Jul-14 22:00N 37°36' W 033°44'0 0.5 1030.6
2018-Jul-14 21:00N 37°36' W 033°44'0 0.0 1030.4
2018-Jul-14 20:00N 37°36' W 033°44'0 0.0 1030.2
2018-Jul-14 19:00N 37°36' W 033°44'0 0.0 1030.3
2018-Jul-14 18:00N 37°36' W 033°44'1 0.8 1030.5
2018-Jul-14 17:00N 37°37' W 033°44'0 0.5 1030.7
2018-Jul-14 16:00N 37°37' W 033°45'0 0.0 1030.8
2018-Jul-14 15:00N 37°37' W 033°45'1 0.8 1030.9
2018-Jul-14 14:00N 37°36' W 033°46'0 0.5 1031.3
2018-Jul-14 13:00N 37°36' W 033°46'1 1.3 1031.5
2018-Jul-14 12:00N 37°35' W 033°47'1 0.6 1031.5
2018-Jul-14 11:00N 37°34' W 033°47'1 0.8 1031.4
2018-Jul-14 10:00N 37°34' W 033°46'0 0.5 1031.6
2018-Jul-14 09:00N 37°34' W 033°46'0 0.0 1031.3
2018-Jul-14 08:00N 37°34' W 033°46'0 0.5 1031.1
2018-Jul-14 07:00N 37°34' W 033°45'1 0.8 1030.6
2018-Jul-14 06:00N 37°34' W 033°44'0 0.0 1030.4
2018-Jul-14 05:00N 37°34' W 033°44'1 0.6 1030.6
2018-Jul-14 04:00N 37°35' W 033°44'0 0.5 1031.1
2018-Jul-14 03:00N 37°35' W 033°45'0 0.5 1031.4
2018-Jul-14 02:00N 37°35' W 033°46'1 0.8 1031.6
2018-Jul-14 01:00N 37°34' W 033°46'1 0.6 1032.2
2018-Jul-13 23:00N 37°33' W 033°46'1 0.6 1032.3
2018-Jul-13 22:00N 37°32' W 033°46'1 0.8 1031.8
2018-Jul-13 21:00N 37°32' W 033°46'0 0.5 1031.7
2018-Jul-13 20:00N 37°32' W 033°45'0 0.5 1031.5
2018-Jul-13 19:00N 37°32' W 033°44'1 0.8 1031.8
2018-Jul-13 18:00N 37°32' W 033°44'0 0.0 1031.9
2018-Jul-13 17:00N 37°32' W 033°44'1 0.8 1032.2
2018-Jul-13 16:00N 37°33' W 033°43'0 0.5 1032.6
2018-Jul-13 15:00N 37°33' W 033°44'1 0.8 1032.9
2018-Jul-13 14:00N 37°34' W 033°44'1 0.8 1033.4
2018-Jul-13 13:00N 37°33' W 033°45'1 0.8 1033.5
2018-Jul-13 12:00N 37°32' W 033°46'1 0.8 1033.7
2018-Jul-13 11:00N 37°32' W 033°46'1 0.6 1033.6
2018-Jul-13 10:00N 37°31' W 033°46'1 1.3 1033.7
2018-Jul-13 09:00N 37°30' W 033°46'1 0.8 1033.6
2018-Jul-13 08:00N 37°29' W 033°45'1 1.0 1033.3
2018-Jul-13 07:00N 37°29' W 033°44'0 0.5 1033.4
2018-Jul-13 06:00N 37°29' W 033°43'1 1.1 1033.5
2018-Jul-13 05:00N 37°30' W 033°42'1 0.8 1033.9
2018-Jul-13 04:00N 37°31' W 033°41'1 0.6 1034.3
2018-Jul-13 03:00N 37°31' W 033°41'1 0.8 1034.4
2018-Jul-13 02:00N 37°32' W 033°42'0 0.0 1034.8
2018-Jul-13 01:00N 37°32' W 033°42'1 1.0 1035.4
2018-Jul-13 00:00N 37°32' W 033°43'0 0.5 1035.3
2018-Jul-12 23:00N 37°32' W 033°44'1 1.3 1035.2
2018-Jul-12 22:00N 37°31' W 033°44'1 0.6 1034.9
2018-Jul-12 21:00N 37°30' W 033°44'1 0.6 1034.9
2018-Jul-12 20:00N 37°29' W 033°44'1 1.3 1034.5
2018-Jul-12 19:00N 37°28' W 033°44'0 0.5 1034.6
2018-Jul-12 18:00N 37°28' W 033°43'1 1.0 1034.6
2018-Jul-12 17:00N 37°28' W 033°42'0 0.0 1035.0
2018-Jul-12 16:00N 37°28' W 033°42'1 1.0 1035.1
2018-Jul-12 15:00N 37°28' W 033°41'0 0.0 1035.4
2018-Jul-12 14:00N 37°28' W 033°41'0 0.5 1035.5
2018-Jul-12 13:00N 37°28' W 033°40'0 0.0 1035.5
2018-Jul-12 12:00N 37°28' W 033°40'0 0.0 1035.4
2018-Jul-12 11:00N 37°28' W 033°40'1 0.6 1035.2
2018-Jul-12 10:00N 37°28' W 033°40'1 0.8 1035.2
2018-Jul-12 09:00N 37°27' W 033°40'0 0.5 1034.8
2018-Jul-12 08:00N 37°27' W 033°39'0 0.5 1034.7
2018-Jul-12 07:00N 37°27' W 033°38'   1034.5

Dump ship's entire track history